Yellowstone National Park, WY (82190)

02:09 AM MST die 28o January, anno 2015 (GMT -0700)
Yellowstone | Change Station
CLOSE
Current Station
Airport
Location: Yellowstone,
Elevation: 7835 ft
Nearby Weather Stations

Elev 7835 ft 44.54 °N, 110.42 °W | Updated 13 minutes ago

Aequaliter Nubila
Aequaliter Nubila
30 °F
Feels Like 30 °F
N
0
Ventus Variabilis Ventus from Aquilo
Gusts 12 mph

Hodie
High -- | Low -- °F
--% Chance of Precip.
Yesterday
High -- | Low -- °F
Precip. -- in
7:45 AM 5:24 PM
Waxing Gibbous, 63% visible
Pressio 30.14 in
Visibilitas -9999.0 milia passuum
Clouds
Frigus in quo Ros apparet 29 °F
Umor 96%
Rainfall 0.06 in
Snow Depth Not available.
UV Not available.
Pollen .10 out of 12
Air Quality Not available.
Flu Activity Not available.
METAR KP60 280856Z AUTO 00000KT M01/M02 A3012 RMK AO1 SLP205 P0004 60010 T10111017 58006 $

More Conditions Fewer Conditions

Pressio 30.14 in
Visibilitas -9999.0 milia passuum
Clouds
Frigus in quo Ros apparet 29 °F
Umor 96%
Rainfall 0.06 in
Snow Depth Not available.
UV Not available.
Pollen .10 out of 12
Air Quality Not available.
Flu Activity Not available.
METAR KP60 280856Z AUTO 00000KT M01/M02 A3012 RMK AO1 SLP205 P0004 60010 T10111017 58006 $

More Conditions Fewer Conditions

10-Day Weather Forecast

Almanac

Astronomy

Jan. 28, 2015 Rise Set
Actual Time
Civil Twilight
Nautical Twilight
Astronomical Twilight
Moon
Length Of Visible Light
Length of Day
Tomorrow will be .
, % of the Moon is Illuminated

Today's Extremes

State Highs State Lows

Community

WunderPhotos

Upload Photos

1,791,120 photos uploaded!

WunderBlogs® & News

Nearby

Air Quality

  Air Quality AQ Index Pollutant
Not available.

Snow Depth

Station Depth Elevation

Earthquake Activity

City Distance Mag. Time & Date
Minimum magnitude displayed is 2.5.

Coastal Water Temperatures

Locus Calor

Nearby Weather Stations